createdAt,value
2023-03-21T00:02:16.634Z,5.03
2023-03-21T00:08:13.687Z,5.19
2023-03-21T00:11:05.244Z,5.05
2023-03-21T00:13:53.617Z,5.07
2023-03-21T00:16:42.389Z,5.25
2023-03-21T00:19:31.025Z,5.20
2023-03-21T00:22:19.376Z,5.15
2023-03-21T00:25:10.636Z,5.29
2023-03-21T00:28:08.451Z,5.18
2023-03-21T00:30:59.427Z,5.22
2023-03-21T00:33:48.225Z,5.43
2023-03-21T00:36:36.701Z,5.59
2023-03-21T00:39:28.581Z,5.75
2023-03-21T00:42:17.160Z,5.88
2023-03-21T00:45:10.429Z,5.78
2023-03-21T00:47:59.860Z,5.77
2023-03-21T00:50:53.205Z,5.57
2023-03-21T00:53:43.564Z,5.42
2023-03-21T00:56:31.953Z,5.55
2023-03-21T00:59:20.723Z,5.44
2023-03-21T01:02:14.945Z,5.33
2023-03-21T01:05:03.639Z,5.27
2023-03-21T01:07:53.382Z,5.26
2023-03-21T01:10:43.666Z,5.13
2023-03-21T01:13:34.556Z,5.37
2023-03-21T01:16:25.060Z,5.51
2023-03-21T01:19:25.092Z,5.50
2023-03-21T01:22:16.238Z,5.66
2023-03-21T01:25:19.524Z,5.75
2023-03-21T01:28:10.898Z,5.88
2023-03-21T01:31:02.128Z,5.98
2023-03-21T01:33:50.799Z,6.10
2023-03-21T01:36:40.594Z,6.21
2023-03-21T01:39:34.971Z,6.29
2023-03-21T01:42:23.457Z,6.28
2023-03-21T01:45:51.790Z,6.25
2023-03-21T01:48:43.494Z,6.27
2023-03-21T01:51:34.578Z,6.19
2023-03-21T01:54:27.558Z,6.19
2023-03-21T01:57:18.798Z,6.31
2023-03-21T02:00:13.100Z,6.41
2023-03-21T02:03:29.570Z,6.45
2023-03-21T02:06:39.778Z,6.55
2023-03-21T02:09:43.404Z,6.53
2023-03-21T02:12:37.764Z,6.34
2023-03-21T02:15:28.191Z,6.12
2023-03-21T02:18:39.878Z,6.13
2023-03-21T02:21:50.201Z,6.10
2023-03-21T02:25:21.373Z,5.95
2023-03-21T02:28:14.034Z,5.75
2023-03-21T02:31:12.014Z,5.56
2023-03-21T02:34:38.971Z,5.55
2023-03-21T02:37:37.539Z,5.57
2023-03-21T02:40:31.379Z,5.59
2023-03-21T02:43:25.661Z,5.45
2023-03-21T02:46:17.693Z,5.41
2023-03-21T02:49:12.355Z,5.52
2023-03-21T02:52:12.169Z,5.63
2023-03-21T02:55:06.253Z,5.63
2023-03-21T02:58:12.727Z,5.64
2023-03-21T03:01:09.192Z,5.77
2023-03-21T03:04:06.132Z,5.87
2023-03-21T03:07:13.177Z,5.96
2023-03-21T03:10:22.605Z,6.06
2023-03-21T03:13:18.986Z,6.07
2023-03-21T03:16:15.560Z,6.02
2023-03-21T03:19:07.137Z,5.97
2023-03-21T03:22:00.989Z,5.98
2023-03-21T03:24:56.389Z,6.00
2023-03-21T03:27:46.466Z,6.08
2023-03-21T03:30:43.334Z,6.13
2023-03-21T03:33:38.523Z,6.22
2023-03-21T03:36:33.107Z,6.29
2023-03-21T03:39:36.231Z,6.26
2023-03-21T03:42:28.823Z,6.18
2023-03-21T03:45:36.541Z,6.11
2023-03-21T03:48:27.618Z,6.22
2023-03-21T03:51:24.092Z,6.39
2023-03-21T03:54:28.744Z,6.48
2023-03-21T03:57:18.717Z,6.55
2023-03-21T04:00:11.914Z,6.60
2023-03-21T04:03:09.966Z,6.69
2023-03-21T04:05:59.437Z,6.64
2023-03-21T04:08:47.757Z,6.70
2023-03-21T04:11:36.238Z,6.78
2023-03-21T04:14:28.672Z,6.80
2023-03-21T04:17:21.766Z,6.85
2023-03-21T04:20:20.720Z,6.84
2023-03-21T04:24:12.061Z,6.91
2023-03-21T04:27:01.634Z,6.91
2023-03-21T04:30:00.339Z,6.87
2023-03-21T04:33:01.481Z,6.93
2023-03-21T04:35:58.618Z,7.00
2023-03-21T04:38:50.527Z,6.97
2023-03-21T04:41:39.598Z,7.01
2023-03-21T04:44:27.952Z,7.04
2023-03-21T04:47:17.152Z,7.07
2023-03-21T04:50:06.997Z,6.97
2023-03-21T04:52:56.861Z,7.04
2023-03-21T04:55:45.255Z,7.10
2023-03-21T04:58:34.151Z,7.13
2023-03-21T05:01:22.543Z,7.18
2023-03-21T05:04:11.118Z,7.18
2023-03-21T05:07:00.680Z,7.20
2023-03-21T05:09:50.928Z,7.17
2023-03-21T05:12:39.493Z,7.08
2023-03-21T05:15:27.964Z,6.95
2023-03-21T05:18:24.763Z,6.87
2023-03-21T05:21:41.912Z,6.95
2023-03-21T05:24:39.299Z,7.03
2023-03-21T05:27:37.594Z,7.07
2023-03-21T05:30:32.208Z,7.11
2023-03-21T05:33:22.522Z,7.08
2023-03-21T05:36:11.583Z,6.89
2023-03-21T05:39:01.872Z,6.70
2023-03-21T05:41:51.343Z,6.55
2023-03-21T05:44:41.445Z,6.60
2023-03-21T05:47:31.991Z,6.60
2023-03-21T05:50:21.821Z,6.50
2023-03-21T05:53:23.847Z,6.21
2023-03-21T05:56:12.273Z,6.34
2023-03-21T05:59:06.571Z,6.45
2023-03-21T06:02:02.351Z,6.33
2023-03-21T06:04:50.805Z,6.34
2023-03-21T06:07:42.858Z,6.36
2023-03-21T06:10:32.226Z,6.47
2023-03-21T06:13:24.973Z,6.55
2023-03-21T06:16:13.739Z,6.50
2023-03-21T06:19:03.533Z,6.50
2023-03-21T06:22:02.741Z,6.45
2023-03-21T06:24:54.131Z,6.50
2023-03-21T06:27:42.519Z,6.50
2023-03-21T06:30:31.277Z,6.63
2023-03-21T06:33:42.881Z,6.64
2023-03-21T06:36:32.576Z,6.72
2023-03-21T06:39:21.393Z,6.83
2023-03-21T06:42:10.441Z,6.93
2023-03-21T06:44:59.459Z,6.94
2023-03-21T06:47:49.073Z,6.92
2023-03-21T06:50:51.407Z,7.00
2023-03-21T06:53:42.895Z,7.07
2023-03-21T06:56:36.867Z,7.06
2023-03-21T06:59:26.197Z,7.26
2023-03-21T07:02:19.299Z,7.34
2023-03-21T07:05:17.249Z,7.54
2023-03-21T07:08:06.681Z,7.64
2023-03-21T07:10:58.407Z,7.60
2023-03-21T07:13:48.704Z,7.57
2023-03-21T07:16:37.313Z,7.60
2023-03-21T07:19:26.354Z,7.65
2023-03-21T07:22:14.845Z,7.71
2023-03-21T07:25:05.418Z,7.79
2023-03-21T07:28:01.767Z,7.94
2023-03-21T07:30:54.469Z,7.93
2023-03-21T07:33:43.008Z,8.11
2023-03-21T07:36:31.590Z,8.28
2023-03-21T07:39:21.229Z,8.39
2023-03-21T07:42:11.918Z,8.45
2023-03-21T07:45:03.116Z,8.53
2023-03-21T07:47:55.018Z,8.65
2023-03-21T07:50:43.399Z,8.67
2023-03-21T07:53:31.803Z,8.78
2023-03-21T07:56:20.184Z,8.86
2023-03-21T07:59:08.576Z,8.95
2023-03-21T08:01:58.429Z,9.02
2023-03-21T08:04:46.994Z,9.09
2023-03-21T08:07:35.512Z,9.19
2023-03-21T08:10:24.176Z,9.34
2023-03-21T08:13:12.563Z,9.41
2023-03-21T08:16:00.930Z,9.55
2023-03-21T08:18:50.650Z,9.54
2023-03-21T08:21:39.252Z,9.49
2023-03-21T08:24:28.256Z,9.57
2023-03-21T08:27:16.623Z,9.75
2023-03-21T08:30:05.803Z,9.66
2023-03-21T08:33:00.915Z,9.74
2023-03-21T08:35:51.276Z,9.90
2023-03-21T08:38:39.950Z,10.02
2023-03-21T08:41:28.311Z,10.05
2023-03-21T08:44:17.129Z,10.15
2023-03-21T08:47:06.550Z,10.32
2023-03-21T08:49:56.012Z,10.48
2023-03-21T08:52:47.091Z,10.57
2023-03-21T08:55:35.721Z,10.70
2023-03-21T08:58:24.302Z,10.83
2023-03-21T09:01:15.727Z,10.90
2023-03-21T09:04:04.357Z,11.00
2023-03-21T09:06:52.999Z,11.13
2023-03-21T09:09:43.640Z,11.19
2023-03-21T09:12:32.023Z,11.26
2023-03-21T09:15:22.103Z,11.25
2023-03-21T09:18:22.106Z,11.35
2023-03-21T09:21:12.810Z,11.41
2023-03-21T09:24:02.805Z,11.30
2023-03-21T09:26:53.031Z,11.31
2023-03-21T09:29:43.494Z,11.43
2023-03-21T09:32:31.870Z,11.60
2023-03-21T09:35:20.853Z,11.55
2023-03-21T09:38:09.363Z,11.69
2023-03-21T09:41:07.448Z,11.63
2023-03-21T09:44:08.207Z,11.65
2023-03-21T09:47:02.772Z,11.63
2023-03-21T09:50:13.045Z,11.69
2023-03-21T09:53:05.908Z,11.77
2023-03-21T09:55:55.028Z,11.84
2023-03-21T09:58:46.654Z,11.76
2023-03-21T10:01:42.002Z,11.79
2023-03-21T10:04:32.531Z,11.73
2023-03-21T10:07:21.096Z,11.53
2023-03-21T10:10:16.083Z,11.63
2023-03-21T10:13:06.538Z,11.84
2023-03-21T10:15:58.100Z,12.10
2023-03-21T10:18:49.313Z,12.16
2023-03-21T10:24:47.854Z,12.61
2023-03-21T10:27:38.273Z,12.27
2023-03-21T10:30:31.604Z,12.48
2023-03-21T10:33:21.933Z,12.67
2023-03-21T10:36:14.052Z,12.52
2023-03-21T10:39:04.344Z,12.63
2023-03-21T10:41:52.713Z,12.41
2023-03-21T10:44:41.138Z,12.61
2023-03-21T10:47:33.647Z,12.84
2023-03-21T10:50:25.730Z,12.86
2023-03-21T10:53:19.771Z,12.92
2023-03-21T10:56:10.513Z,12.89
2023-03-21T10:59:00.990Z,12.88
2023-03-21T11:01:52.240Z,12.96
2023-03-21T11:04:40.848Z,13.04
2023-03-21T11:07:31.601Z,13.08
2023-03-21T11:10:30.694Z,13.45
2023-03-21T11:13:20.931Z,13.43
2023-03-21T11:16:11.786Z,13.32
2023-03-21T11:19:02.774Z,13.18
2023-03-21T11:21:51.203Z,13.40
2023-03-21T11:24:40.622Z,13.54
2023-03-21T11:27:30.912Z,13.74
2023-03-21T11:30:23.050Z,13.79
2023-03-21T11:33:12.980Z,13.73
2023-03-21T11:36:03.143Z,13.87
2023-03-21T11:38:58.693Z,13.88
2023-03-21T11:41:49.329Z,13.99
2023-03-21T11:44:44.939Z,14.07
2023-03-21T11:47:33.292Z,14.04
2023-03-21T11:50:28.213Z,14.14
2023-03-21T11:53:27.043Z,13.94
2023-03-21T11:56:24.495Z,14.04
2023-03-21T11:59:24.075Z,14.06
2023-03-21T12:02:38.264Z,14.22
2023-03-21T12:05:28.889Z,14.29
2023-03-21T12:08:26.575Z,14.23
2023-03-21T12:11:18.714Z,14.28
2023-03-21T12:14:13.774Z,14.10
2023-03-21T12:17:08.064Z,14.32
2023-03-21T12:20:30.293Z,14.53
2023-03-21T12:23:43.945Z,14.52
2023-03-21T12:26:35.559Z,14.58
2023-03-21T12:29:34.612Z,14.84
2023-03-21T12:32:35.459Z,14.94
2023-03-21T12:35:36.966Z,14.86
2023-03-21T12:38:33.960Z,15.05
2023-03-21T12:41:25.622Z,15.05
2023-03-21T12:44:15.757Z,15.03
2023-03-21T12:47:06.849Z,15.19
2023-03-21T12:49:59.228Z,15.44
2023-03-21T12:52:50.970Z,15.37
2023-03-21T12:55:40.619Z,15.31
2023-03-21T12:58:30.054Z,15.13
2023-03-21T13:01:19.595Z,14.83
2023-03-21T13:04:20.991Z,14.84
2023-03-21T13:07:12.274Z,14.76
2023-03-21T13:10:02.886Z,14.72
2023-03-21T13:13:05.047Z,14.69
2023-03-21T13:15:58.804Z,14.81
2023-03-21T13:18:56.445Z,15.08
2023-03-21T13:21:51.615Z,15.08
2023-03-21T13:24:43.785Z,15.01
2023-03-21T13:27:34.764Z,15.22
2023-03-21T13:30:26.151Z,15.31
2023-03-21T13:33:16.708Z,15.44
2023-03-21T13:36:08.995Z,15.51
2023-03-21T13:39:01.458Z,15.49
2023-03-21T13:41:50.299Z,15.76
2023-03-21T13:44:45.421Z,15.80
2023-03-21T13:47:41.218Z,16.02
2023-03-21T13:50:38.134Z,15.92
2023-03-21T13:53:32.126Z,16.07
2023-03-21T13:56:25.142Z,15.92
2023-03-21T13:59:15.391Z,16.19
2023-03-21T14:02:22.078Z,16.40
2023-03-21T14:05:22.205Z,16.28
2023-03-21T14:08:19.268Z,16.05
2023-03-21T14:11:16.810Z,15.98
2023-03-21T14:14:05.568Z,16.29
2023-03-21T14:16:54.114Z,16.32
2023-03-21T14:19:43.861Z,16.34
2023-03-21T14:22:32.185Z,16.48
2023-03-21T14:25:24.361Z,16.56
2023-03-21T14:28:16.419Z,16.77
2023-03-21T14:31:04.942Z,16.75
2023-03-21T14:33:55.040Z,16.93
2023-03-21T14:36:51.621Z,16.94
2023-03-21T14:39:45.497Z,17.13
2023-03-21T14:42:36.246Z,17.36
2023-03-21T14:45:27.125Z,17.31
2023-03-21T14:48:17.478Z,17.45
2023-03-21T14:51:09.285Z,17.62
2023-03-21T14:53:59.030Z,17.80
2023-03-21T14:56:50.779Z,17.81
2023-03-21T14:59:40.467Z,18.21
2023-03-21T15:02:31.923Z,18.52
2023-03-21T15:05:25.051Z,18.52
2023-03-21T15:08:16.822Z,18.37
2023-03-21T15:11:08.903Z,18.56
2023-03-21T15:13:57.792Z,18.06
2023-03-21T15:16:46.261Z,18.36
2023-03-21T15:19:37.283Z,18.51
2023-03-21T15:22:30.660Z,18.59
2023-03-21T15:25:22.976Z,18.30
2023-03-21T15:28:14.655Z,17.79
2023-03-21T15:31:04.495Z,17.98
2023-03-21T15:33:54.520Z,17.99
2023-03-21T15:36:45.962Z,17.66
2023-03-21T15:39:36.226Z,17.70
2023-03-21T15:42:27.558Z,17.76
2023-03-21T15:45:21.549Z,17.78
2023-03-21T15:48:13.487Z,17.48
2023-03-21T15:51:04.624Z,17.60
2023-03-21T15:53:54.474Z,17.67
2023-03-21T15:56:45.977Z,17.58
2023-03-21T15:59:36.668Z,17.11
2023-03-21T16:02:30.836Z,16.90
2023-03-21T16:05:24.662Z,16.89
2023-03-21T16:08:21.664Z,16.87
2023-03-21T16:11:17.521Z,16.85
2023-03-21T16:14:05.958Z,16.68
2023-03-21T16:16:54.694Z,16.46
2023-03-21T16:19:45.037Z,16.43
2023-03-21T16:22:34.983Z,16.37
2023-03-21T16:25:23.473Z,16.37
2023-03-21T16:28:14.635Z,16.17
2023-03-21T16:31:03.121Z,16.08
2023-03-21T16:33:52.269Z,15.86
2023-03-21T16:36:43.495Z,15.67
2023-03-21T16:39:31.853Z,15.58
2023-03-21T16:42:20.586Z,15.59
2023-03-21T16:45:10.470Z,15.57
2023-03-21T16:48:00.027Z,15.62
2023-03-21T16:50:48.991Z,15.55
2023-03-21T16:53:38.755Z,15.63
2023-03-21T16:56:28.652Z,15.46
2023-03-21T16:59:17.077Z,15.56
2023-03-21T17:02:13.099Z,15.58
2023-03-21T17:05:03.692Z,15.50
2023-03-21T17:07:52.246Z,15.40
2023-03-21T17:10:41.954Z,15.42
2023-03-21T17:13:30.304Z,15.42
2023-03-21T17:16:20.855Z,15.39
2023-03-21T17:19:13.675Z,15.25
2023-03-21T17:22:02.127Z,15.11
2023-03-21T17:24:50.634Z,15.05
2023-03-21T17:27:40.800Z,15.04
2023-03-21T17:30:31.163Z,15.05
2023-03-21T17:33:19.520Z,15.04
2023-03-21T17:36:13.448Z,15.02
2023-03-21T17:39:02.012Z,14.94
2023-03-21T17:41:50.732Z,14.94
2023-03-21T17:44:40.446Z,14.92
2023-03-21T17:47:30.992Z,14.88
2023-03-21T17:50:21.321Z,14.87
2023-03-21T17:53:09.789Z,14.86
2023-03-21T17:55:58.164Z,14.83
2023-03-21T17:58:47.186Z,14.80
2023-03-21T18:01:36.987Z,14.76
2023-03-21T18:04:25.430Z,14.71
2023-03-21T18:07:18.509Z,14.68
2023-03-21T18:10:14.712Z,14.62
2023-03-21T18:13:03.140Z,14.56
2023-03-21T18:15:52.867Z,14.53
2023-03-21T18:18:42.744Z,14.47
2023-03-21T18:21:32.867Z,14.41
2023-03-21T18:24:21.433Z,14.35
2023-03-21T18:27:10.085Z,14.28
2023-03-21T18:33:06.942Z,14.18
2023-03-21T18:36:00.142Z,14.14
2023-03-21T18:38:49.110Z,14.05
2023-03-21T18:41:37.455Z,14.00
2023-03-21T18:44:25.997Z,13.93
2023-03-21T18:47:15.107Z,13.82
2023-03-21T18:50:14.242Z,13.62
2023-03-21T18:53:04.997Z,13.57
2023-03-21T18:55:53.430Z,13.58
2023-03-21T18:58:41.929Z,13.55
2023-03-21T19:01:30.432Z,13.53
2023-03-21T19:04:29.089Z,13.42
2023-03-21T19:07:18.648Z,13.34
2023-03-21T19:10:18.970Z,13.15
2023-03-21T19:13:08.232Z,12.82
2023-03-21T19:15:56.664Z,12.53
2023-03-21T19:18:54.491Z,12.39
2023-03-21T19:21:47.081Z,12.39
2023-03-21T19:24:35.570Z,12.48
2023-03-21T19:27:25.385Z,12.54
2023-03-21T19:30:15.598Z,12.56
2023-03-21T19:33:04.723Z,12.55
2023-03-21T19:36:09.186Z,12.47
2023-03-21T19:38:59.419Z,12.26
2023-03-21T19:41:48.127Z,12.28
2023-03-21T19:44:38.449Z,12.16
2023-03-21T19:47:27.161Z,11.94
2023-03-21T19:53:24.101Z,11.63
2023-03-21T19:56:21.796Z,11.75
2023-03-21T19:59:12.252Z,11.89
2023-03-21T20:02:27.113Z,11.81
2023-03-21T20:05:10.966Z,11.78
2023-03-21T20:07:59.607Z,11.83
2023-03-21T20:10:48.038Z,11.92
2023-03-21T20:13:36.395Z,11.92
2023-03-21T20:16:24.859Z,11.81
2023-03-21T20:19:16.258Z,11.74
2023-03-21T20:22:13.462Z,11.54
2023-03-21T20:25:09.787Z,11.46
2023-03-21T20:28:14.790Z,11.49
2023-03-21T20:31:04.069Z,11.62
2023-03-21T20:33:53.369Z,11.68
2023-03-21T20:36:43.845Z,11.78
2023-03-21T20:39:32.374Z,11.76
2023-03-21T20:42:21.123Z,11.78
2023-03-21T20:45:11.914Z,11.72
2023-03-21T20:48:00.689Z,11.77
2023-03-21T20:50:51.859Z,11.80
2023-03-21T20:53:41.746Z,11.74
2023-03-21T20:56:30.594Z,11.53
2023-03-21T20:59:26.589Z,11.43
2023-03-21T21:02:16.846Z,11.45
2023-03-21T21:05:27.768Z,11.38
2023-03-21T21:08:19.055Z,11.44
2023-03-21T21:11:56.932Z,11.54
2023-03-21T21:14:17.700Z,11.63
2023-03-21T21:17:24.627Z,11.67
2023-03-21T21:20:20.466Z,11.68
2023-03-21T21:23:09.524Z,11.69
2023-03-21T21:25:58.206Z,11.71
2023-03-21T21:28:47.977Z,11.69
2023-03-21T21:31:37.186Z,11.66
2023-03-21T21:34:26.659Z,11.48
2023-03-21T21:37:15.336Z,11.31
2023-03-21T21:40:12.930Z,11.18
2023-03-21T21:43:03.617Z,11.10
2023-03-21T21:45:53.764Z,10.89
2023-03-21T21:48:42.494Z,10.74
2023-03-21T21:51:34.052Z,10.81
2023-03-21T21:54:22.548Z,10.94
2023-03-21T21:57:10.970Z,10.99
2023-03-21T22:00:01.968Z,11.02
2023-03-21T22:03:02.013Z,10.91
2023-03-21T22:05:50.806Z,10.59
2023-03-21T22:08:46.812Z,10.56
2023-03-21T22:11:35.330Z,10.58
2023-03-21T22:14:23.867Z,10.55
2023-03-21T22:17:12.571Z,10.39
2023-03-21T22:20:06.354Z,10.37
2023-03-21T22:22:56.788Z,10.20
2023-03-21T22:25:50.868Z,10.16
2023-03-21T22:28:42.184Z,10.13
2023-03-21T22:31:32.240Z,10.16
2023-03-21T22:34:21.007Z,10.05
2023-03-21T22:37:11.062Z,9.74
2023-03-21T22:39:59.529Z,9.70
2023-03-21T22:42:47.897Z,9.75
2023-03-21T22:45:36.339Z,9.73
2023-03-21T22:48:24.793Z,9.65
2023-03-21T22:51:13.246Z,9.39
2023-03-21T22:54:02.982Z,9.36
2023-03-21T22:56:51.521Z,9.33
2023-03-21T22:59:39.899Z,9.29
2023-03-21T23:02:29.133Z,9.15
2023-03-21T23:05:17.778Z,8.99
2023-03-21T23:08:06.630Z,9.18
2023-03-21T23:10:56.445Z,9.30
2023-03-21T23:13:46.792Z,9.31
2023-03-21T23:16:38.316Z,8.98
2023-03-21T23:19:28.849Z,9.18
2023-03-21T23:22:17.210Z,9.31
2023-03-21T23:25:06.706Z,9.17
2023-03-21T23:27:56.496Z,9.15
2023-03-21T23:30:44.976Z,9.21
2023-03-21T23:33:33.396Z,9.16
2023-03-21T23:36:23.412Z,9.06
2023-03-21T23:39:12.021Z,8.72
2023-03-21T23:42:00.490Z,8.70
2023-03-21T23:44:50.406Z,8.65
2023-03-21T23:47:38.936Z,8.82
2023-03-21T23:50:27.295Z,8.93
2023-03-21T23:53:15.655Z,8.99
2023-03-21T23:56:10.745Z,9.02
2023-03-21T23:58:59.611Z,9.09
